Time;durP1;ratioP1;P1;durP2;ratioP2;P2;SDS_P1;SDS_P2;PMS_P1;PMS_P2;Temp;Humidity;BMP_temperature;BMP_pressure;BME280_temperature;BME280_humidity;BME280_pressure;Samples;Min_cycle;Max_cycle;Signal;HPM_P1;HPM_P2
2021/11/04 07:12:03;;;;;;;;;0.50;0.50;;;;;;;;5068250;27;1452290;-77
2021/11/04 07:14:29;;;;;;;;;2.00;1.00;;;;;;;;5099533;27;112490;-76
2021/11/04 07:16:58;;;;;;;;;2.00;2.00;;;;;;;;5099273;27;111900;-76
2021/11/04 07:19:23;;;;;;;;;3.00;2.00;;;;;;;;5093011;27;112189;-74
2021/11/04 07:21:54;;;;;;;;;1.00;1.00;;;;;;;;5097568;27;112377;-77
2021/11/04 07:24:28;;;;;;;;;1.75;1.00;;;;;;;;5097948;27;112951;-74
2021/11/04 07:26:55;;;;;;;;;0.00;0.00;;;;;;;;5098642;27;111926;-73
2021/11/04 07:29:24;;;;;;;;;0.00;0.00;;;;;;;;5092508;27;113661;-78
2021/11/04 07:31:51;;;;;;;;;1.25;1.00;;;;;;;;5100584;27;112611;-75
2021/11/04 07:34:18;;;;;;;;;2.00;1.00;;;;;;;;5094221;27;112613;-69
2021/11/04 07:36:44;;;;;;;;;1.00;1.00;;;;;;;;5098128;27;112298;-69
2021/11/04 07:39:11;;;;;;;;;1.75;0.25;;;;;;;;5097980;27;111865;-73
2021/11/04 07:41:37;;;;;;;;;2.50;0.25;;;;;;;;5093193;27;113677;-73
2021/11/04 07:44:03;;;;;;;;;0.00;0.00;;;;;;;;5097635;27;112891;-72
2021/11/04 07:46:28;;;;;;;;;0.75;0.75;;;;;;;;5098567;27;111950;-73
2021/11/04 07:48:54;;;;;;;;;4.00;1.00;;;;;;;;5098125;27;112292;-72
2021/11/04 07:51:20;;;;;;;;;0.00;0.00;;;;;;;;5098842;27;112054;-72
2021/11/04 07:53:45;;;;;;;;;2.00;2.00;;;;;;;;5101644;27;112013;-73
2021/11/04 07:56:12;;;;;;;;;3.00;0.25;;;;;;;;5099110;27;112337;-74
2021/11/04 07:58:38;;;;;;;;;2.00;0.00;;;;;;;;5099655;27;112237;-72
2021/11/04 08:01:03;;;;;;;;;1.00;1.00;;;;;;;;5079369;27;112513;-73
2021/11/04 08:03:28;;;;;;;;;1.75;0.00;;;;;;;;5099125;27;111846;-72
2021/11/04 08:05:53;;;;;;;;;2.00;1.00;;;;;;;;5099071;27;112240;-72
2021/11/04 08:08:19;;;;;;;;;1.00;1.00;;;;;;;;5097620;27;113834;-74
2021/11/04 08:10:44;;;;;;;;;1.25;1.25;;;;;;;;5098420;27;112183;-73
2021/11/04 08:13:13;;;;;;;;;1.25;0.00;;;;;;;;5098189;27;111775;-69
2021/11/04 08:15:39;;;;;;;;;0.25;0.25;;;;;;;;5101664;27;113051;-70
2021/11/04 08:18:06;;;;;;;;;1.00;1.00;;;;;;;;5079146;27;114991;-71
2021/11/04 08:20:31;;;;;;;;;1.00;0.00;;;;;;;;5097217;27;113106;-70
2021/11/04 08:22:57;;;;;;;;;0.00;0.00;;;;;;;;5087133;27;112160;-71
2021/11/04 08:25:23;;;;;;;;;0.00;0.00;;;;;;;;5085139;27;112628;-70
2021/11/04 08:27:49;;;;;;;;;2.00;2.00;;;;;;;;5083022;27;112450;-72
2021/11/04 08:30:16;;;;;;;;;5.00;2.25;;;;;;;;5065375;27;112017;-72
2021/11/04 08:32:42;;;;;;;;;0.00;0.00;;;;;;;;5084179;27;112298;-72
2021/11/04 08:35:07;;;;;;;;;1.00;0.00;;;;;;;;5084019;27;112688;-73
2021/11/04 08:37:33;;;;;;;;;1.00;1.00;;;;;;;;5088840;27;112225;-72
2021/11/04 08:39:58;;;;;;;;;9.50;7.75;;;;;;;;5083564;27;112818;-70
2021/11/04 08:42:23;;;;;;;;;0.25;0.25;;;;;;;;5084735;27;112157;-68
2021/11/04 08:44:49;;;;;;;;;12.00;10.50;;;;;;;;5084401;27;112225;-70
2021/11/04 08:47:14;;;;;;;;;2.75;2.00;;;;;;;;5082024;27;113144;-69
2021/11/04 08:49:40;;;;;;;;;4.00;2.50;;;;;;;;5084236;27;112282;-72
2021/11/04 08:52:07;;;;;;;;;1.25;0.00;;;;;;;;5065536;27;113721;-74
2021/11/04 08:54:33;;;;;;;;;3.25;1.50;;;;;;;;5083535;27;112424;-74
2021/11/04 08:56:58;;;;;;;;;29.25;29.00;;;;;;;;5065919;27;112311;-76
2021/11/04 08:59:24;;;;;;;;;9.00;6.75;;;;;;;;5086225;27;111696;-75
2021/11/04 09:01:49;;;;;;;;;14.00;14.00;;;;;;;;5084070;27;111926;-74
2021/11/04 09:04:15;;;;;;;;;4.00;4.00;;;;;;;;5083379;27;111981;-76
2021/11/04 09:06:40;;;;;;;;;25.00;19.00;;;;;;;;5082860;27;112875;-72
2021/11/04 09:09:07;;;;;;;;;56.00;43.50;;;;;;;;5082472;27;112109;-73
2021/11/04 09:11:32;;;;;;;;;2.25;2.25;;;;;;;;5083165;27;112061;-77
2021/11/04 09:13:58;;;;;;;;;20.50;15.75;;;;;;;;5064579;27;116444;-76
2021/11/04 09:16:23;;;;;;;;;41.25;32.25;;;;;;;;5083348;27;111985;-74
2021/11/04 09:18:49;;;;;;;;;3.00;2.00;;;;;;;;5083623;27;112343;-73
2021/11/04 09:21:14;;;;;;;;;12.00;11.00;;;;;;;;5085788;27;113080;-73
2021/11/04 09:23:39;;;;;;;;;22.00;13.25;;;;;;;;5064130;27;114528;-75
2021/11/04 09:26:05;;;;;;;;;2.50;2.50;;;;;;;;5063634;27;113543;-72
2021/11/04 09:28:30;;;;;;;;;2.00;0.00;;;;;;;;5065273;27;111957;-74
2021/11/04 09:30:55;;;;;;;;;6.25;2.75;;;;;;;;5064615;27;115778;-74
2021/11/04 09:33:21;;;;;;;;;5.25;3.50;;;;;;;;5061799;27;115265;-73
2021/11/04 09:35:46;;;;;;;;;0.00;0.00;;;;;;;;5083326;27;112006;-76
2021/11/04 09:38:11;;;;;;;;;6.00;4.00;;;;;;;;5083640;27;111942;-75
2021/11/04 09:40:37;;;;;;;;;3.50;2.50;;;;;;;;5085924;27;112443;-74
2021/11/04 09:43:05;;;;;;;;;5.50;4.00;;;;;;;;5083004;27;111927;-75
2021/11/04 09:45:31;;;;;;;;;41.00;36.25;;;;;;;;5081042;27;112802;-74
2021/11/04 09:47:56;;;;;;;;;45.50;35.00;;;;;;;;5080571;27;112203;-74
2021/11/04 09:50:22;;;;;;;;;82.00;63.00;;;;;;;;5081591;27;112441;-74
2021/11/04 09:52:53;;;;;;;;;116.00;107.25;;;;;;;;5080961;27;112872;-74
2021/11/04 09:55:20;;;;;;;;;116.50;108.25;;;;;;;;5080175;27;112177;-72
2021/11/04 09:57:46;;;;;;;;;16.50;16.25;;;;;;;;5061062;27;113157;-74
2021/11/04 10:00:12;;;;;;;;;20.50;14.75;;;;;;;;5061836;27;115930;-73
2021/11/04 10:02:39;;;;;;;;;60.00;46.50;;;;;;;;5085800;27;112339;-73
2021/11/04 10:05:09;;;;;;;;;39.75;35.25;;;;;;;;5079189;27;114472;-79
2021/11/04 10:07:48;;;;;;;;;39.50;34.00;;;;;;;;5080499;27;111892;-68
2021/11/04 10:10:17;;;;;;;;;62.33;50.00;;;;;;;;5078848;27;112076;-67
2021/11/04 10:13:14;;;;;;;;;64.25;50.00;;;;;;;;5078876;27;113826;-68
2021/11/04 10:15:41;;;;;;;;;15.50;12.00;;;;;;;;5006133;27;112305;-67
2021/11/04 10:18:12;;;;;;;;;4.50;4.50;;;;;;;;5080000;27;112065;-67
2021/11/04 10:20:38;;;;;;;;;2.25;2.00;;;;;;;;5080810;27;112636;-68
2021/11/04 10:23:05;;;;;;;;;5.00;5.00;;;;;;;;5081624;27;112069;-68
2021/11/04 10:25:31;;;;;;;;;4.00;2.50;;;;;;;;5083792;27;112125;-68
2021/11/04 10:27:56;;;;;;;;;4.50;3.75;;;;;;;;5075055;27;113460;-67
2021/11/04 10:30:41;;;;;;;;;3.00;2.25;;;;;;;;5081082;27;112065;-67
2021/11/04 10:33:25;;;;;;;;;1.75;0.25;;;;;;;;5079786;27;112825;-67
2021/11/04 10:35:52;;;;;;;;;3.00;1.00;;;;;;;;5080984;27;113345;-68
2021/11/04 10:38:18;;;;;;;;;0.00;0.00;;;;;;;;5078577;27;112092;-68
2021/11/04 10:40:43;;;;;;;;;2.75;1.00;;;;;;;;5079990;27;113049;-68
2021/11/04 10:43:09;;;;;;;;;0.50;0.50;;;;;;;;5081628;27;112202;-68
2021/11/04 10:45:34;;;;;;;;;2.25;0.00;;;;;;;;5080529;27;111795;-67
2021/11/04 10:48:16;;;;;;;;;0.25;0.25;;;;;;;;5084354;27;112689;-69
2021/11/04 10:50:42;;;;;;;;;0.00;0.00;;;;;;;;5081662;27;113139;-68
2021/11/04 10:53:07;;;;;;;;;1.00;0.00;;;;;;;;5081969;27;112420;-69
2021/11/04 10:55:33;;;;;;;;;1.00;0.00;;;;;;;;5082364;27;111818;-68
2021/11/04 10:57:58;;;;;;;;;1.75;0.00;;;;;;;;5082532;27;112326;-68
2021/11/04 11:00:24;;;;;;;;;1.00;0.00;;;;;;;;5080521;27;112874;-68
2021/11/04 11:02:59;;;;;;;;;1.00;0.25;;;;;;;;5081525;27;111840;-68
2021/11/04 11:05:28;;;;;;;;;1.25;0.00;;;;;;;;5082118;27;111995;-68
2021/11/04 11:07:54;;;;;;;;;0.50;0.00;;;;;;;;5077966;27;112741;-67
2021/11/04 11:10:19;;;;;;;;;0.00;0.00;;;;;;;;5085868;27;112236;-71
2021/11/04 11:12:45;;;;;;;;;0.50;0.00;;;;;;;;5080770;27;113720;-69
2021/11/04 11:15:10;;;;;;;;;0.00;0.00;;;;;;;;5082422;27;112110;-69
2021/11/04 11:17:38;;;;;;;;;1.50;0.00;;;;;;;;5081908;27;111926;-70
2021/11/04 11:20:04;;;;;;;;;0.00;0.00;;;;;;;;5081147;27;113075;-69
2021/11/04 11:22:29;;;;;;;;;0.00;0.00;;;;;;;;5081468;27;112323;-69
2021/11/04 11:24:55;;;;;;;;;0.00;0.00;;;;;;;;5081415;27;112376;-70
2021/11/04 11:27:23;;;;;;;;;1.00;0.00;;;;;;;;5080345;27;113464;-71
2021/11/04 11:29:49;;;;;;;;;0.00;0.00;;;;;;;;5085365;27;111678;-69
2021/11/04 11:32:21;;;;;;;;;0.00;0.00;;;;;;;;5079932;27;112339;-70
2021/11/04 11:34:47;;;;;;;;;0.00;0.00;;;;;;;;5061736;27;112111;-68
2021/11/04 11:37:17;;;;;;;;;1.00;0.00;;;;;;;;5081170;27;112157;-69
2021/11/04 11:40:05;;;;;;;;;1.00;0.00;;;;;;;;5078862;27;112580;-68
2021/11/04 11:42:30;;;;;;;;;0.00;0.00;;;;;;;;5078003;27;111970;-72
2021/11/04 11:45:12;;;;;;;;;0.00;0.00;;;;;;;;5078787;27;112191;-72
2021/11/04 11:47:39;;;;;;;;;1.00;0.00;;;;;;;;5078516;27;114314;-72
2021/11/04 11:50:20;;;;;;;;;0.00;0.00;;;;;;;;5072021;27;113310;-75
2021/11/04 11:52:53;;;;;;;;;0.00;0.00;;;;;;;;5080836;27;112409;-80
2021/11/04 11:55:33;;;;;;;;;0.00;0.00;;;;;;;;5079376;27;112021;-76
2021/11/04 20:09:25;;;;;;;;;14.75;10.75;;;;;;;;5124011;27;112146;-79
2021/11/04 20:11:50;;;;;;;;;10.00;10.00;;;;;;;;5100236;27;112427;-81
2021/11/04 20:14:18;;;;;;;;;15.75;11.75;;;;;;;;5100228;27;111856;-82
2021/11/04 20:16:43;;;;;;;;;14.75;10.00;;;;;;;;5099667;27;112857;-81
2021/11/04 20:19:09;;;;;;;;;16.75;14.00;;;;;;;;5099087;27;112437;-82
2021/11/04 20:21:34;;;;;;;;;10.25;10.25;;;;;;;;5100689;27;111860;-80
2021/11/04 20:24:00;;;;;;;;;15.25;13.75;;;;;;;;5099839;27;112145;-74
2021/11/04 20:26:25;;;;;;;;;11.25;10.50;;;;;;;;5097593;27;112362;-76
2021/11/04 20:28:51;;;;;;;;;12.25;11.25;;;;;;;;5103089;27;112209;-75
2021/11/04 20:31:16;;;;;;;;;16.25;12.75;;;;;;;;5097910;27;112586;-75
2021/11/04 20:33:42;;;;;;;;;13.75;11.75;;;;;;;;5080355;27;111973;-83
2021/11/04 20:36:08;;;;;;;;;11.25;9.75;;;;;;;;5099415;27;112095;-80
2021/11/04 20:38:35;;;;;;;;;14.25;8.50;;;;;;;;5098192;27;112463;-84
2021/11/04 20:41:01;;;;;;;;;11.25;9.75;;;;;;;;5099444;27;111810;-77
2021/11/04 20:43:26;;;;;;;;;12.00;11.00;;;;;;;;5098834;27;111928;-73
2021/11/04 20:45:52;;;;;;;;;13.75;11.00;;;;;;;;5097216;27;114232;-75
2021/11/04 20:48:18;;;;;;;;;11.25;9.25;;;;;;;;5029065;27;112001;-72
2021/11/04 20:50:44;;;;;;;;;13.00;10.75;;;;;;;;5020208;28;111956;-79
2021/11/04 20:53:10;;;;;;;;;13.00;11.00;;;;;;;;5016591;28;112152;-77
2021/11/04 20:55:36;;;;;;;;;11.50;8.25;;;;;;;;5015117;28;112432;-76
2021/11/04 20:58:02;;;;;;;;;11.50;9.00;;;;;;;;5013403;28;112547;-77
2021/11/04 21:00:28;;;;;;;;;11.75;11.75;;;;;;;;5011523;28;113680;-82
2021/11/04 21:02:54;;;;;;;;;12.75;11.00;;;;;;;;5015342;28;113297;-79
2021/11/04 21:05:20;;;;;;;;;9.00;7.50;;;;;;;;5013460;28;112412;-75
2021/11/04 21:07:45;;;;;;;;;10.75;9.25;;;;;;;;5015594;28;112206;-75
2021/11/04 21:10:12;;;;;;;;;11.50;8.00;;;;;;;;5015099;28;112308;-75
2021/11/04 21:12:37;;;;;;;;;12.25;11.00;;;;;;;;5018587;28;112885;-76
2021/11/04 21:15:03;;;;;;;;;15.50;12.25;;;;;;;;4996341;28;114367;-75
2021/11/04 21:17:29;;;;;;;;;12.50;9.50;;;;;;;;5013540;28;112466;-75
2021/11/04 21:19:55;;;;;;;;;12.00;9.00;;;;;;;;5006566;28;112120;-75
2021/11/04 21:22:21;;;;;;;;;9.50;8.00;;;;;;;;4983497;28;114936;-76
2021/11/04 21:24:50;;;;;;;;;12.25;12.00;;;;;;;;5000873;28;113068;-76
2021/11/04 21:27:16;;;;;;;;;13.50;11.50;;;;;;;;5000499;28;111934;-75
2021/11/04 21:29:42;;;;;;;;;10.50;8.25;;;;;;;;4982625;28;114480;-77
2021/11/04 21:32:07;;;;;;;;;12.25;9.50;;;;;;;;5001294;28;112436;-78
2021/11/04 21:34:32;;;;;;;;;13.25;9.00;;;;;;;;5005866;28;112228;-77
2021/11/04 21:36:58;;;;;;;;;9.25;8.00;;;;;;;;5001309;28;112806;-75
2021/11/04 21:39:24;;;;;;;;;10.75;9.00;;;;;;;;5002782;28;112381;-76
2021/11/04 21:41:49;;;;;;;;;7.50;7.25;;;;;;;;5002528;28;112202;-76
2021/11/04 21:44:15;;;;;;;;;9.00;8.00;;;;;;;;5000308;28;112394;-74
2021/11/04 21:46:40;;;;;;;;;7.75;7.75;;;;;;;;4997595;28;111975;-77
2021/11/04 21:49:06;;;;;;;;;8.50;8.00;;;;;;;;5002700;28;112455;-75
2021/11/04 21:51:32;;;;;;;;;9.00;9.00;;;;;;;;5000811;28;113695;-76
2021/11/04 21:53:57;;;;;;;;;8.00;7.00;;;;;;;;5002404;28;112034;-77
2021/11/04 21:56:23;;;;;;;;;9.00;9.00;;;;;;;;5005679;28;112137;-78
2021/11/04 21:58:48;;;;;;;;;9.00;7.00;;;;;;;;5003388;28;113228;-78
2021/11/04 22:01:16;;;;;;;;;7.50;7.50;;;;;;;;5003726;28;112210;-79
2021/11/04 22:03:43;;;;;;;;;8.00;8.00;;;;;;;;4983873;28;114470;-76
2021/11/04 22:06:09;;;;;;;;;11.00;9.00;;;;;;;;5002483;28;112268;-78
2021/11/04 22:08:35;;;;;;;;;10.25;6.75;;;;;;;;5000712;28;112809;-79
2021/11/04 22:11:01;;;;;;;;;10.75;8.00;;;;;;;;4982591;28;114293;-79
2021/11/04 22:13:27;;;;;;;;;9.50;9.25;;;;;;;;4984482;28;112214;-78
2021/11/04 22:15:53;;;;;;;;;12.75;8.00;;;;;;;;5002367;28;112521;-78
2021/11/04 22:18:19;;;;;;;;;9.00;8.00;;;;;;;;5004213;28;112228;-79
2021/11/04 22:20:44;;;;;;;;;9.25;9.25;;;;;;;;4984606;28;114826;-77
2021/11/04 22:23:10;;;;;;;;;7.00;4.25;;;;;;;;5002427;28;112877;-77
2021/11/04 22:25:35;;;;;;;;;9.50;7.00;;;;;;;;5002977;28;112006;-83
2021/11/04 22:28:02;;;;;;;;;7.00;7.00;;;;;;;;5002551;28;112831;-79
2021/11/04 22:30:28;;;;;;;;;8.00;8.00;;;;;;;;5000565;28;114743;-77
2021/11/04 22:32:58;;;;;;;;;7.75;6.00;;;;;;;;5002831;28;111777;-79
2021/11/04 22:37:58;;;;;;;;;7.25;5.75;;;;;;;;5098416;27;112201;-79
2021/11/04 22:40:24;;;;;;;;;5.00;5.00;;;;;;;;5058570;27;116153;-80
2021/11/04 22:42:50;;;;;;;;;5.50;5.50;;;;;;;;5055638;27;112458;-80
2021/11/04 22:45:15;;;;;;;;;7.00;5.00;;;;;;;;5068331;27;112174;-80
2021/11/04 22:47:41;;;;;;;;;7.00;4.00;;;;;;;;5058137;27;112410;-80
2021/11/04 22:50:07;;;;;;;;;8.00;8.00;;;;;;;;5057995;27;112017;-81
2021/11/04 22:52:36;;;;;;;;;5.00;4.50;;;;;;;;5058374;27;112340;-82
2021/11/04 22:55:02;;;;;;;;;4.25;4.25;;;;;;;;5059746;27;112968;-81
2021/11/04 22:57:27;;;;;;;;;8.50;6.00;;;;;;;;5081415;27;112322;-81
2021/11/04 22:59:53;;;;;;;;;5.50;4.75;;;;;;;;5059820;27;112444;-80
2021/11/04 23:02:18;;;;;;;;;4.75;4.00;;;;;;;;5058366;27;112148;-81
2021/11/04 23:04:43;;;;;;;;;11.75;6.00;;;;;;;;5058330;27;112212;-82
2021/11/04 23:07:09;;;;;;;;;10.00;7.00;;;;;;;;5055289;27;112870;-81
2021/11/04 23:09:34;;;;;;;;;9.00;7.00;;;;;;;;5056526;27;112143;-79
2021/11/04 23:11:59;;;;;;;;;7.50;6.50;;;;;;;;5058163;27;112168;-79
2021/11/04 23:14:25;;;;;;;;;8.00;8.00;;;;;;;;5055841;27;112298;-80
2021/11/04 23:16:51;;;;;;;;;9.00;7.50;;;;;;;;5057338;27;111931;-80
2021/11/04 23:19:16;;;;;;;;;7.50;7.50;;;;;;;;5041728;27;113541;-80
2021/11/04 23:21:41;;;;;;;;;11.75;8.00;;;;;;;;5057838;27;112754;-79
2021/11/04 23:24:07;;;;;;;;;15.25;10.50;;;;;;;;5058668;27;112105;-80
2021/11/04 23:26:33;;;;;;;;;8.00;8.00;;;;;;;;5056656;27;112473;-78
2021/11/04 23:28:58;;;;;;;;;11.50;10.50;;;;;;;;5057357;27;113853;-73
2021/11/04 23:31:24;;;;;;;;;14.00;12.25;;;;;;;;5056986;27;112245;-77
2021/11/04 23:33:50;;;;;;;;;11.75;11.50;;;;;;;;5037645;27;113689;-79
2021/11/04 23:36:15;;;;;;;;;15.00;13.00;;;;;;;;5056765;27;113026;-78
2021/11/04 23:38:41;;;;;;;;;17.50;15.00;;;;;;;;5057721;27;112303;-77
2021/11/04 23:41:06;;;;;;;;;18.00;16.25;;;;;;;;5060257;27;113485;-77
2021/11/04 23:43:35;;;;;;;;;23.50;20.00;;;;;;;;5057207;27;112014;-76
2021/11/04 23:46:00;;;;;;;;;31.33;28.33;;;;;;;;5056531;27;113657;-76
2021/11/04 23:48:25;;;;;;;;;34.33;33.00;;;;;;;;5048704;27;111915;-76
2021/11/04 23:50:50;;;;;;;;;64.67;47.00;;;;;;;;5044009;27;112048;-77
2021/11/04 23:53:16;;;;;;;;;35.33;31.33;;;;;;;;5042957;27;112502;-77
2021/11/04 23:55:42;;;;;;;;;19.25;17.00;;;;;;;;5043675;27;111840;-77
2021/11/04 23:58:08;;;;;;;;;25.00;22.00;;;;;;;;5043441;27;111715;-75
